createdAt,value
2023-05-06T00:01:25.434Z,71.10
2023-05-06T00:03:53.592Z,71.10
2023-05-06T00:06:23.018Z,71.10
2023-05-06T00:08:50.938Z,71.10
2023-05-06T00:11:18.936Z,71.20
2023-05-06T00:13:46.881Z,71.20
2023-05-06T00:16:15.297Z,71.10
2023-05-06T00:18:43.337Z,71.20
2023-05-06T00:21:11.309Z,71.20
2023-05-06T00:23:40.695Z,71.20
2023-05-06T00:26:08.698Z,71.20
2023-05-06T00:28:36.720Z,71.20
2023-05-06T00:31:04.681Z,71.30
2023-05-06T00:33:32.658Z,71.30
2023-05-06T00:36:00.598Z,71.30
2023-05-06T00:38:28.516Z,71.30
2023-05-06T00:40:58.148Z,71.30
2023-05-06T00:43:26.174Z,71.30
2023-05-06T00:45:54.221Z,71.30
2023-05-06T00:48:22.244Z,71.30
2023-05-06T00:50:50.356Z,71.40
2023-05-06T00:53:20.279Z,71.40
2023-05-06T00:55:48.296Z,71.30
2023-05-06T00:58:17.650Z,71.40
2023-05-06T01:00:45.780Z,71.40
2023-05-06T01:03:13.865Z,71.40
2023-05-06T01:05:48.745Z,71.40
2023-05-06T01:08:18.830Z,71.40
2023-05-06T01:10:50.896Z,71.40
2023-05-06T01:13:22.576Z,71.40
2023-05-06T01:15:53.678Z,71.50
2023-05-06T01:18:22.941Z,71.50
2023-05-06T01:20:52.950Z,71.50
2023-05-06T01:23:22.566Z,71.50
2023-05-06T01:25:50.542Z,71.50
2023-05-06T01:28:18.688Z,71.50
2023-05-06T01:30:50.834Z,71.50
2023-05-06T01:33:22.715Z,71.50
2023-05-06T01:35:55.832Z,71.50
2023-05-06T01:38:29.050Z,71.50
2023-05-06T01:40:57.997Z,71.60
2023-05-06T01:43:27.598Z,71.60
2023-05-06T01:45:56.863Z,71.60
2023-05-06T01:48:25.841Z,71.60
2023-05-06T01:50:54.003Z,71.60
2023-05-06T01:53:22.149Z,71.60
2023-05-06T01:55:51.472Z,71.60
2023-05-06T01:58:19.375Z,71.60
2023-05-06T02:00:47.264Z,71.60
2023-05-06T02:03:15.587Z,71.60
2023-05-06T02:05:43.605Z,71.60
2023-05-06T02:08:11.621Z,71.70
2023-05-06T02:10:39.704Z,71.60
2023-05-06T02:13:09.233Z,71.60
2023-05-06T02:15:37.271Z,71.70
2023-05-06T02:18:05.386Z,72.00
2023-05-06T02:20:33.395Z,71.70
2023-05-06T02:23:01.359Z,71.70
2023-05-06T02:25:29.438Z,71.70
2023-05-06T02:27:57.448Z,71.80
2023-05-06T02:30:26.847Z,71.70
2023-05-06T02:32:54.854Z,71.70
2023-05-06T02:35:22.891Z,71.70
2023-05-06T02:37:50.919Z,71.70
2023-05-06T02:40:18.891Z,71.70
2023-05-06T02:42:46.974Z,71.80
2023-05-06T02:45:14.943Z,71.80
2023-05-06T02:47:44.297Z,71.80
2023-05-06T02:50:12.257Z,71.80
2023-05-06T02:52:40.249Z,71.80
2023-05-06T02:55:08.726Z,71.80
2023-05-06T02:57:36.927Z,71.80
2023-05-06T03:00:06.234Z,71.80
2023-05-06T03:02:34.266Z,71.80
2023-05-06T03:05:04.492Z,71.80
2023-05-06T03:07:32.525Z,71.80
2023-05-06T03:10:00.515Z,71.80
2023-05-06T03:12:28.393Z,71.90
2023-05-06T03:14:56.391Z,71.80
2023-05-06T03:17:24.487Z,71.80
2023-05-06T03:19:52.517Z,71.90
2023-05-06T03:22:21.838Z,71.90
2023-05-06T03:24:49.811Z,71.90
2023-05-06T03:27:17.734Z,71.90
2023-05-06T03:29:45.776Z,71.80
2023-05-06T03:32:13.699Z,71.90
2023-05-06T03:34:41.694Z,71.90
2023-05-06T03:37:10.244Z,71.90
2023-05-06T03:39:39.562Z,71.90
2023-05-06T03:42:09.397Z,71.90
2023-05-06T03:44:37.874Z,71.90
2023-05-06T03:47:05.853Z,71.90
2023-05-06T03:49:33.744Z,71.90
2023-05-06T03:52:01.816Z,72.00
2023-05-06T03:54:29.882Z,71.90
2023-05-06T03:56:59.300Z,71.90
2023-05-06T03:59:27.174Z,71.90
2023-05-06T04:01:55.095Z,72.00
2023-05-06T04:04:23.131Z,71.90
2023-05-06T04:06:51.061Z,72.00
2023-05-06T04:09:18.985Z,71.90
2023-05-06T04:11:46.998Z,72.00
2023-05-06T04:14:16.374Z,72.00
2023-05-06T04:16:44.452Z,72.00
2023-05-06T04:19:12.436Z,72.00
2023-05-06T04:21:40.440Z,72.00
2023-05-06T04:24:08.530Z,72.10
2023-05-06T04:26:36.631Z,72.00
2023-05-06T04:29:04.610Z,72.00
2023-05-06T04:31:34.484Z,72.10
2023-05-06T04:34:02.684Z,72.00
2023-05-06T04:36:30.730Z,72.00
2023-05-06T04:38:58.687Z,72.00
2023-05-06T04:41:27.004Z,72.10
2023-05-06T04:43:54.967Z,72.10
2023-05-06T04:46:23.190Z,72.10
2023-05-06T04:48:52.733Z,72.10
2023-05-06T04:51:20.775Z,72.10
2023-05-06T04:53:48.867Z,72.10
2023-05-06T04:56:16.827Z,72.10
2023-05-06T04:58:44.812Z,72.10
2023-05-06T05:01:12.779Z,72.10
2023-05-06T05:03:40.759Z,72.10
2023-05-06T05:06:11.437Z,72.10
2023-05-06T05:08:39.415Z,72.10
2023-05-06T05:11:07.524Z,72.10
2023-05-06T05:13:35.569Z,72.10
2023-05-06T05:16:03.632Z,72.10
2023-05-06T05:18:31.608Z,72.10
2023-05-06T05:20:59.592Z,72.10
2023-05-06T05:23:28.952Z,72.10
2023-05-06T05:25:58.198Z,72.70
2023-05-06T05:28:26.257Z,72.10
2023-05-06T05:30:54.527Z,72.10
2023-05-06T05:33:22.560Z,72.10
2023-05-06T05:35:50.477Z,72.10
2023-05-06T05:38:18.466Z,72.20
2023-05-06T05:40:47.751Z,72.10
2023-05-06T05:43:15.682Z,72.10
2023-05-06T05:45:43.649Z,72.10
2023-05-06T05:48:11.635Z,72.10
2023-05-06T05:50:39.669Z,72.10
2023-05-06T05:53:07.702Z,72.10
2023-05-06T05:55:35.688Z,72.10
2023-05-06T05:58:04.988Z,72.20
2023-05-06T06:00:32.901Z,72.20
2023-05-06T06:03:01.100Z,72.10
2023-05-06T06:05:29.287Z,72.10
2023-05-06T06:07:57.229Z,72.80
2023-05-06T06:10:25.180Z,72.20
2023-05-06T06:12:53.182Z,72.20
2023-05-06T06:15:22.762Z,72.20
2023-05-06T06:17:50.745Z,72.20
2023-05-06T06:20:18.827Z,72.20
2023-05-06T06:22:46.817Z,72.20
2023-05-06T06:25:14.993Z,72.20
2023-05-06T06:27:42.923Z,72.20
2023-05-06T06:30:11.317Z,72.20
2023-05-06T06:32:48.485Z,72.20
2023-05-06T06:35:16.689Z,72.20
2023-05-06T06:37:44.644Z,72.20
2023-05-06T06:40:13.600Z,72.20
2023-05-06T06:42:41.656Z,72.30
2023-05-06T06:45:10.505Z,72.20
2023-05-06T06:47:38.674Z,72.30
2023-05-06T06:50:09.730Z,72.30
2023-05-06T06:52:37.781Z,72.20
2023-05-06T06:55:06.038Z,72.20
2023-05-06T06:57:34.156Z,72.20
2023-05-06T07:00:02.206Z,72.30
2023-05-06T07:02:30.409Z,72.20
2023-05-06T07:04:58.388Z,72.20
2023-05-06T07:07:27.898Z,72.20
2023-05-06T07:09:55.835Z,72.30
2023-05-06T07:12:24.536Z,72.30
2023-05-06T07:14:52.497Z,72.30
2023-05-06T07:17:20.644Z,72.30
2023-05-06T07:19:48.794Z,72.30
2023-05-06T07:22:16.802Z,72.20
2023-05-06T07:24:46.196Z,72.30
2023-05-06T07:27:14.221Z,72.30
2023-05-06T07:29:42.125Z,72.30
2023-05-06T07:32:10.428Z,72.30
2023-05-06T07:34:38.394Z,72.30
2023-05-06T07:37:08.059Z,72.30
2023-05-06T07:39:36.039Z,72.30
2023-05-06T07:42:05.369Z,72.20
2023-05-06T07:44:33.263Z,72.30
2023-05-06T07:47:01.406Z,72.30
2023-05-06T07:49:31.462Z,72.20
2023-05-06T07:51:59.349Z,72.30
2023-05-06T07:54:27.359Z,72.30
2023-05-06T07:56:55.227Z,72.20
2023-05-06T07:59:24.567Z,72.90
2023-05-06T08:01:52.566Z,72.20
2023-05-06T08:04:20.580Z,72.30
2023-05-06T08:06:48.660Z,72.30
2023-05-06T08:09:22.569Z,72.30
2023-05-06T08:11:51.325Z,72.30
2023-05-06T08:14:19.435Z,72.30
2023-05-06T08:16:48.909Z,72.30
2023-05-06T08:19:16.897Z,72.30
2023-05-06T08:21:44.852Z,72.30
2023-05-06T08:24:13.648Z,72.30
2023-05-06T08:26:42.048Z,72.30
2023-05-06T08:29:09.924Z,72.30
2023-05-06T08:31:37.792Z,72.30
2023-05-06T08:34:07.143Z,72.30
2023-05-06T08:36:35.189Z,72.30
2023-05-06T08:39:03.226Z,72.30
2023-05-06T08:41:31.534Z,72.30
2023-05-06T08:44:00.084Z,72.30
2023-05-06T08:46:30.925Z,72.30
2023-05-06T08:48:59.026Z,72.20
2023-05-06T08:51:31.877Z,72.30
2023-05-06T08:54:01.708Z,72.20
2023-05-06T08:56:30.975Z,72.30
2023-05-06T08:58:59.461Z,72.30
2023-05-06T09:01:28.801Z,72.30
2023-05-06T09:03:57.158Z,72.30
2023-05-06T09:06:25.468Z,72.30
2023-05-06T09:08:54.952Z,72.20
2023-05-06T09:11:24.112Z,72.30
2023-05-06T09:13:52.265Z,72.30
2023-05-06T09:16:29.898Z,72.30
2023-05-06T09:18:58.214Z,72.30
2023-05-06T09:21:31.487Z,72.30
2023-05-06T09:24:01.352Z,72.90
2023-05-06T09:26:29.928Z,72.30
2023-05-06T09:28:58.327Z,72.20
2023-05-06T09:31:26.788Z,72.30
2023-05-06T09:33:54.979Z,72.30
2023-05-06T09:36:23.721Z,72.30
2023-05-06T09:38:54.076Z,72.30
2023-05-06T09:41:24.332Z,72.30
2023-05-06T09:43:53.424Z,72.20
2023-05-06T09:46:22.383Z,72.30
2023-05-06T09:48:51.886Z,72.20
2023-05-06T09:51:20.242Z,72.20
2023-05-06T09:53:48.769Z,72.20
2023-05-06T09:56:17.266Z,72.20
2023-05-06T09:58:47.054Z,72.20
2023-05-06T10:01:25.109Z,72.20
2023-05-06T10:04:02.489Z,72.20
2023-05-06T10:06:30.753Z,72.20
2023-05-06T10:08:59.254Z,72.30
2023-05-06T10:11:27.477Z,72.20
2023-05-06T10:13:57.155Z,72.30
2023-05-06T10:16:25.334Z,72.20
2023-05-06T10:18:54.489Z,72.20
2023-05-06T10:21:26.395Z,72.20
2023-05-06T10:23:59.479Z,72.20
2023-05-06T10:26:28.637Z,72.20
2023-05-06T10:28:58.463Z,72.20
2023-05-06T10:31:27.352Z,72.20
2023-05-06T10:33:55.697Z,72.20
2023-05-06T10:36:25.426Z,72.20
2023-05-06T10:38:56.550Z,72.10
2023-05-06T10:41:27.827Z,72.10
2023-05-06T10:43:57.673Z,72.20
2023-05-06T10:46:28.059Z,72.10
2023-05-06T10:49:14.957Z,72.10
2023-05-06T10:51:43.039Z,72.10
2023-05-06T10:54:11.629Z,72.10
2023-05-06T10:56:40.558Z,72.10
2023-05-06T10:59:09.383Z,72.10
2023-05-06T11:01:40.065Z,72.10
2023-05-06T11:04:08.989Z,72.10
2023-05-06T11:06:38.418Z,72.10
2023-05-06T11:09:06.904Z,72.10
2023-05-06T11:11:54.498Z,72.00
2023-05-06T11:14:29.811Z,72.00
2023-05-06T11:17:00.001Z,72.00
2023-05-06T11:19:28.463Z,72.00
2023-05-06T11:21:57.686Z,72.00
2023-05-06T11:24:27.134Z,72.00
2023-05-06T11:26:55.647Z,71.90
2023-05-06T11:29:23.966Z,71.90
2023-05-06T11:31:53.263Z,71.90
2023-05-06T11:34:27.325Z,71.90
2023-05-06T11:37:00.790Z,71.90
2023-05-06T11:39:30.904Z,71.90
2023-05-06T11:41:59.774Z,71.90
2023-05-06T11:44:28.355Z,71.90
2023-05-06T11:47:03.191Z,71.90
2023-05-06T11:49:36.902Z,71.80
2023-05-06T11:52:05.373Z,71.80
2023-05-06T11:54:35.513Z,71.80
2023-05-06T11:57:03.604Z,71.80
2023-05-06T11:59:32.508Z,71.80
2023-05-06T12:02:01.511Z,71.80
2023-05-06T12:04:29.711Z,71.80
2023-05-06T12:06:59.147Z,71.80
2023-05-06T12:09:27.136Z,71.80
2023-05-06T12:11:56.217Z,71.80
2023-05-06T12:14:24.212Z,71.80
2023-05-06T12:16:54.093Z,71.70
2023-05-06T12:19:24.201Z,71.80
2023-05-06T12:21:52.382Z,71.70
2023-05-06T12:24:30.129Z,71.70
2023-05-06T12:26:58.142Z,71.70
2023-05-06T12:29:26.113Z,71.70
2023-05-06T12:32:08.296Z,71.70
2023-05-06T12:34:39.836Z,71.70
2023-05-06T12:37:08.660Z,71.70
2023-05-06T12:39:38.697Z,71.70
2023-05-06T12:42:07.285Z,71.70
2023-05-06T12:44:36.292Z,71.70
2023-05-06T12:47:05.588Z,71.70
2023-05-06T12:49:47.110Z,71.70
2023-05-06T12:52:15.137Z,71.70
2023-05-06T12:54:44.511Z,71.70
2023-05-06T12:57:12.589Z,71.70
2023-05-06T12:59:40.654Z,71.60
2023-05-06T13:02:08.647Z,71.60
2023-05-06T13:04:36.825Z,71.70
2023-05-06T13:07:04.929Z,71.60
2023-05-06T13:09:32.865Z,71.70
2023-05-06T13:12:02.434Z,71.70
2023-05-06T13:14:30.523Z,71.60
2023-05-06T13:17:01.143Z,71.70
2023-05-06T13:19:32.989Z,71.60
2023-05-06T13:22:01.711Z,71.60
2023-05-06T13:24:29.794Z,71.70
2023-05-06T13:26:59.491Z,72.20
2023-05-06T13:29:29.604Z,71.70
2023-05-06T13:31:57.871Z,71.70
2023-05-06T13:34:26.089Z,71.70
2023-05-06T13:36:54.744Z,71.70
2023-05-06T13:39:22.839Z,71.70
2023-05-06T13:41:51.155Z,71.70
2023-05-06T13:44:19.368Z,71.60
2023-05-06T13:46:48.856Z,72.30
2023-05-06T13:49:16.955Z,71.70
2023-05-06T13:51:45.011Z,71.70
2023-05-06T13:54:13.013Z,71.70
2023-05-06T13:56:41.095Z,72.30
2023-05-06T13:59:11.223Z,71.70
2023-05-06T14:01:39.607Z,71.70
2023-05-06T14:04:09.040Z,71.70
2023-05-06T14:06:37.068Z,71.70
2023-05-06T14:09:05.150Z,71.70
2023-05-06T14:11:33.149Z,71.70
2023-05-06T14:14:01.985Z,71.70
2023-05-06T14:16:30.018Z,71.70
2023-05-06T14:18:58.052Z,71.70
2023-05-06T14:21:27.493Z,71.70
2023-05-06T14:23:55.887Z,71.70
2023-05-06T14:26:23.843Z,71.70
2023-05-06T14:28:51.761Z,71.70
2023-05-06T14:31:19.722Z,71.70
2023-05-06T14:33:47.721Z,71.70
2023-05-06T14:36:18.892Z,71.70
2023-05-06T14:38:48.205Z,71.70
2023-05-06T14:41:16.204Z,71.70
2023-05-06T14:43:44.177Z,71.70
2023-05-06T14:46:14.550Z,71.70
2023-05-06T14:48:43.446Z,71.70
2023-05-06T14:51:11.504Z,71.70
2023-05-06T14:53:39.423Z,71.80
2023-05-06T14:56:10.635Z,71.70
2023-05-06T14:58:39.261Z,71.70
2023-05-06T15:01:07.246Z,71.70
2023-05-06T15:03:36.366Z,71.70
2023-05-06T15:06:04.614Z,71.80
2023-05-06T15:08:32.765Z,71.80
2023-05-06T15:11:03.105Z,71.80
2023-05-06T15:13:33.754Z,71.80
2023-05-06T15:16:01.877Z,71.80
2023-05-06T15:18:29.880Z,71.80
2023-05-06T15:21:01.642Z,71.80
2023-05-06T15:23:29.636Z,72.40
2023-05-06T15:25:57.917Z,71.80
2023-05-06T15:28:25.865Z,71.80
2023-05-06T15:30:55.120Z,71.80
2023-05-06T15:33:23.030Z,71.80
2023-05-06T15:35:51.026Z,71.80
2023-05-06T15:38:19.017Z,71.80
2023-05-06T15:40:50.357Z,71.80
2023-05-06T15:43:23.314Z,71.80
2023-05-06T15:45:51.934Z,71.80
2023-05-06T15:48:21.627Z,71.80
2023-05-06T15:50:49.624Z,71.80
2023-05-06T15:53:17.555Z,71.90
2023-05-06T15:55:52.894Z,71.80
2023-05-06T15:58:25.401Z,71.80
2023-05-06T16:00:53.340Z,71.90
2023-05-06T16:03:22.923Z,71.80
2023-05-06T16:05:50.909Z,71.80
2023-05-06T16:08:18.884Z,71.90
2023-05-06T16:10:46.928Z,71.90
2023-05-06T16:13:15.018Z,71.80
2023-05-06T16:15:43.088Z,71.90
2023-05-06T16:18:11.251Z,71.80
2023-05-06T16:20:40.603Z,71.90
2023-05-06T16:23:08.594Z,71.80
2023-05-06T16:25:38.248Z,71.90
2023-05-06T16:28:06.575Z,71.90
2023-05-06T16:30:34.524Z,71.90
2023-05-06T16:33:02.543Z,71.90
2023-05-06T16:35:30.698Z,71.90
2023-05-06T16:38:00.134Z,71.90
2023-05-06T16:40:29.947Z,71.90
2023-05-06T16:42:57.968Z,71.90
2023-05-06T16:45:25.889Z,71.90
2023-05-06T16:47:53.971Z,72.00
2023-05-06T16:50:22.038Z,72.00
2023-05-06T16:52:50.084Z,71.90
2023-05-06T16:55:21.863Z,72.00
2023-05-06T16:57:50.169Z,72.00
2023-05-06T17:00:18.620Z,72.10
2023-05-06T17:02:46.698Z,72.00
2023-05-06T17:05:14.743Z,72.10
2023-05-06T17:07:42.718Z,72.00
2023-05-06T17:10:11.278Z,72.70
2023-05-06T17:12:41.703Z,72.00
2023-05-06T17:15:10.308Z,72.00
2023-05-06T17:17:38.300Z,72.00
2023-05-06T17:20:07.164Z,72.00
2023-05-06T17:22:35.140Z,72.00
2023-05-06T17:25:04.236Z,72.00
2023-05-06T17:27:32.233Z,72.00
2023-05-06T17:30:01.729Z,72.00
2023-05-06T17:32:29.673Z,72.10
2023-05-06T17:34:57.686Z,72.10
2023-05-06T17:37:25.777Z,72.10
2023-05-06T17:39:54.682Z,72.10
2023-05-06T17:42:22.837Z,72.10
2023-05-06T17:44:51.190Z,72.10
2023-05-06T17:47:22.892Z,72.10
2023-05-06T17:49:51.663Z,72.10
2023-05-06T17:52:19.588Z,72.10
2023-05-06T17:54:56.929Z,72.10
2023-05-06T17:57:34.714Z,72.10
2023-05-06T18:00:02.662Z,72.10
2023-05-06T18:02:32.142Z,72.10
2023-05-06T18:05:00.514Z,72.10
2023-05-06T18:07:30.168Z,72.10
2023-05-06T18:09:58.323Z,72.10
2023-05-06T18:12:26.440Z,72.20
2023-05-06T18:14:55.434Z,72.10
2023-05-06T18:17:23.454Z,72.10
2023-05-06T18:19:52.813Z,72.10
2023-05-06T18:22:20.806Z,72.20
2023-05-06T18:24:50.233Z,72.20
2023-05-06T18:27:18.188Z,72.10
2023-05-06T18:29:46.209Z,72.20
2023-05-06T18:32:14.223Z,72.20
2023-05-06T18:34:42.265Z,72.20
2023-05-06T18:37:11.610Z,72.20
2023-05-06T18:39:42.908Z,72.20
2023-05-06T18:42:10.935Z,72.20
2023-05-06T18:44:39.142Z,72.20
2023-05-06T18:47:07.226Z,72.20
2023-05-06T18:49:35.454Z,72.20
2023-05-06T18:52:03.528Z,72.30
2023-05-06T18:54:32.971Z,72.30
2023-05-06T18:57:02.323Z,72.30
2023-05-06T18:59:30.405Z,72.20
2023-05-06T19:01:58.419Z,72.30
2023-05-06T19:04:26.529Z,72.30
2023-05-06T19:06:54.868Z,72.30
2023-05-06T19:09:22.862Z,72.30
2023-05-06T19:11:52.194Z,72.30
2023-05-06T19:14:20.598Z,72.30
2023-05-06T19:16:49.293Z,72.30
2023-05-06T19:19:17.387Z,72.30
2023-05-06T19:21:45.517Z,72.40
2023-05-06T19:24:13.467Z,72.40
2023-05-06T19:26:41.468Z,72.40
2023-05-06T19:29:10.962Z,72.40
2023-05-06T19:31:38.967Z,72.40
2023-05-06T19:34:06.958Z,72.40
2023-05-06T19:36:34.955Z,72.40
2023-05-06T19:39:03.296Z,72.40
2023-05-06T19:41:31.363Z,72.40
2023-05-06T19:43:59.304Z,72.40
2023-05-06T19:46:28.551Z,72.40
2023-05-06T19:48:58.128Z,72.40
2023-05-06T19:51:26.904Z,72.40
2023-05-06T19:53:54.829Z,72.50
2023-05-06T19:56:23.009Z,72.50
2023-05-06T19:58:52.060Z,72.50
2023-05-06T20:01:23.802Z,72.50
2023-05-06T20:03:53.441Z,72.60
2023-05-06T20:06:21.506Z,72.50
2023-05-06T20:08:49.616Z,72.50
2023-05-06T20:11:17.588Z,72.50
2023-05-06T20:13:45.569Z,72.50
2023-05-06T20:16:13.622Z,72.60
2023-05-06T20:18:42.864Z,72.50
2023-05-06T20:21:12.202Z,72.50
2023-05-06T20:23:40.153Z,72.50
2023-05-06T20:26:08.187Z,72.50
2023-05-06T20:28:39.152Z,72.60
2023-05-06T20:31:07.466Z,72.60
2023-05-06T20:33:35.570Z,72.50
2023-05-06T20:36:04.039Z,72.60
2023-05-06T20:38:33.737Z,72.60
2023-05-06T20:41:02.815Z,72.60
2023-05-06T20:43:31.749Z,72.70
2023-05-06T20:45:59.869Z,72.70
2023-05-06T20:48:28.215Z,72.60
2023-05-06T20:50:57.609Z,72.60
2023-05-06T20:53:27.288Z,72.70
2023-05-06T20:55:56.693Z,72.70
2023-05-06T20:58:24.646Z,72.70
2023-05-06T21:00:52.767Z,72.70
2023-05-06T21:03:20.742Z,72.70
2023-05-06T21:05:48.789Z,72.70
2023-05-06T21:08:16.808Z,72.70
2023-05-06T21:10:45.000Z,72.80
2023-05-06T21:13:14.354Z,72.80
2023-05-06T21:15:42.305Z,72.70
2023-05-06T21:18:10.411Z,72.70
2023-05-06T21:20:38.607Z,72.80
2023-05-06T21:23:06.577Z,72.70
2023-05-06T21:25:34.582Z,72.70
2023-05-06T21:28:05.419Z,72.80
2023-05-06T21:30:35.713Z,72.80
2023-05-06T21:33:03.884Z,72.80
2023-05-06T21:35:32.013Z,72.80
2023-05-06T21:38:00.021Z,72.80
2023-05-06T21:40:28.147Z,72.70
2023-05-06T21:42:56.135Z,72.80
2023-05-06T21:45:24.110Z,72.80
2023-05-06T21:47:53.582Z,72.80
2023-05-06T21:50:21.545Z,72.80
2023-05-06T21:52:49.529Z,72.80
2023-05-06T21:55:17.909Z,72.80
2023-05-06T21:57:46.396Z,72.80
2023-05-06T22:00:14.772Z,72.80
2023-05-06T22:02:42.763Z,72.80
2023-05-06T22:05:12.554Z,72.90
2023-05-06T22:07:40.710Z,72.80
2023-05-06T22:10:09.168Z,72.80
2023-05-06T22:12:37.356Z,72.80
2023-05-06T22:15:05.726Z,72.80
2023-05-06T22:17:34.902Z,72.80
2023-05-06T22:20:04.357Z,72.80
2023-05-06T22:22:34.309Z,72.90
2023-05-06T22:25:02.978Z,72.90
2023-05-06T22:27:30.975Z,72.90
2023-05-06T22:29:58.898Z,72.80
2023-05-06T22:32:26.857Z,72.80
2023-05-06T22:34:54.930Z,72.90
2023-05-06T22:37:22.931Z,72.90
2023-05-06T22:39:53.336Z,72.90
2023-05-06T22:42:21.619Z,72.90
2023-05-06T22:44:49.555Z,72.90
2023-05-06T22:47:19.698Z,72.90
2023-05-06T22:49:47.629Z,72.90
2023-05-06T22:52:15.676Z,72.90
2023-05-06T22:54:43.641Z,72.90
2023-05-06T22:57:13.121Z,72.90
2023-05-06T22:59:41.048Z,72.90
2023-05-06T23:02:08.885Z,72.90
2023-05-06T23:04:36.942Z,72.90
2023-05-06T23:07:04.916Z,72.90
2023-05-06T23:09:32.836Z,72.90
2023-05-06T23:12:01.003Z,72.90
2023-05-06T23:14:30.395Z,72.90
2023-05-06T23:16:58.369Z,72.90
2023-05-06T23:19:26.953Z,72.90
2023-05-06T23:21:54.953Z,72.90
2023-05-06T23:24:22.964Z,72.90
2023-05-06T23:26:51.964Z,72.90
2023-05-06T23:29:19.930Z,72.90
2023-05-06T23:31:49.364Z,72.90
2023-05-06T23:34:17.314Z,72.90
2023-05-06T23:36:45.269Z,72.90
2023-05-06T23:39:13.261Z,73.50
2023-05-06T23:41:41.345Z,72.90
2023-05-06T23:44:09.304Z,72.90
2023-05-06T23:46:37.194Z,72.90
2023-05-06T23:49:06.559Z,73.00
2023-05-06T23:51:34.687Z,72.90
2023-05-06T23:54:02.683Z,73.00
2023-05-06T23:56:30.731Z,72.90
2023-05-06T23:58:58.706Z,73.00
